createdAt,value
2023-03-21T00:02:25.715Z,95779.72
2023-03-21T00:05:54.927Z,95777.53
2023-03-21T00:08:47.386Z,95773.72
2023-03-21T00:11:41.189Z,95771.63
2023-03-21T00:14:39.793Z,95769.69
2023-03-21T00:17:18.574Z,95768.31
2023-03-21T00:19:52.826Z,95770.16
2023-03-21T00:22:29.390Z,95765.06
2023-03-21T15:30:54.694Z,95354.81
2023-03-21T15:33:26.827Z,95352.59
2023-03-21T15:35:59.791Z,95350.13
2023-03-21T15:38:35.105Z,95356.16
2023-03-21T15:41:29.158Z,95350.06
2023-03-21T15:44:15.896Z,95347.06
2023-03-21T15:46:49.996Z,95353.78
2023-03-21T15:49:27.252Z,95345.16
2023-03-21T15:52:05.326Z,95345.75
2023-03-21T15:54:43.489Z,95347.03
2023-03-21T15:57:24.087Z,95347.72
2023-03-21T16:00:00.769Z,95356.78
2023-03-21T16:02:32.299Z,95347.53
2023-03-21T16:05:20.895Z,95354.16
2023-03-21T16:07:50.692Z,95348.59
2023-03-21T16:10:32.590Z,95355.69
2023-03-21T16:13:02.223Z,95359.72
2023-03-21T16:15:32.764Z,95350.78
2023-03-21T16:18:09.048Z,95347.94
2023-03-21T16:20:45.154Z,95350.06
2023-03-21T16:23:17.338Z,95350.66
2023-03-21T16:25:47.089Z,95359.19
2023-03-21T16:28:18.282Z,95348.53
2023-03-21T16:30:47.733Z,95352.41
2023-03-21T16:33:18.550Z,95346.97
2023-03-21T16:35:48.487Z,95354.50
2023-03-21T16:38:17.954Z,95358.66
2023-03-21T16:40:47.427Z,95358.97
2023-03-21T16:43:16.959Z,95351.72
2023-03-21T16:45:46.481Z,95363.50
2023-03-21T16:48:18.750Z,95361.47
2023-03-21T16:50:49.821Z,95365.84
2023-03-21T16:53:19.236Z,95364.31
2023-03-21T16:55:48.771Z,95364.75
2023-03-21T16:58:18.509Z,95366.50
2023-03-21T17:00:48.030Z,95373.13
2023-03-21T17:03:19.486Z,95368.06
2023-03-21T17:05:49.321Z,95375.72
2023-03-21T17:08:21.821Z,95376.28
2023-03-21T17:10:52.122Z,95376.63
2023-03-21T17:13:21.533Z,95374.66
2023-03-21T17:15:51.103Z,95378.78
2023-03-21T17:18:21.887Z,95379.09
2023-03-21T17:20:51.352Z,95370.84
2023-03-21T17:23:20.887Z,95374.75
2023-03-21T17:25:50.456Z,95386.97
2023-03-21T17:28:19.935Z,95382.16
2023-03-21T17:30:49.371Z,95382.81
2023-03-21T17:33:18.768Z,95386.63
2023-03-21T17:35:49.806Z,95382.63
2023-03-21T17:38:19.383Z,95391.88
2023-03-21T17:40:50.549Z,95377.91
2023-03-21T17:43:23.283Z,95382.25
2023-03-21T17:45:53.426Z,95384.47
2023-03-21T17:48:23.052Z,95384.50
2023-03-21T17:50:53.923Z,95381.84
2023-03-21T17:53:23.481Z,95382.66
2023-03-21T17:55:52.903Z,95387.00
2023-03-21T17:58:22.380Z,95385.97
2023-03-21T18:00:51.868Z,95388.69
2023-03-21T18:03:21.458Z,95384.41
2023-03-21T18:05:50.920Z,95387.97
2023-03-21T18:08:22.093Z,95387.97
2023-03-21T18:10:52.692Z,95396.91
2023-03-21T18:13:23.272Z,95392.34
2023-03-21T18:15:53.162Z,95394.25
2023-03-21T18:18:22.617Z,95395.88
2023-03-21T18:20:54.014Z,95402.94
2023-03-21T18:23:25.294Z,95405.38
2023-03-21T18:25:55.000Z,95397.84
2023-03-21T18:28:27.377Z,95399.19
2023-03-21T18:31:17.435Z,95408.06
2023-03-21T18:33:49.092Z,95402.97
2023-03-21T18:36:25.540Z,95410.25
2023-03-21T18:38:58.834Z,95407.56
2023-03-21T18:41:29.330Z,95409.47
2023-03-21T18:44:09.161Z,95409.75
2023-03-21T18:46:47.033Z,95402.47
2023-03-21T18:52:07.807Z,95406.78
2023-03-21T18:54:39.019Z,95412.16
2023-03-21T18:59:59.704Z,95410.06
2023-03-21T19:02:29.625Z,95411.16
2023-03-21T19:04:59.119Z,95412.50
2023-03-21T19:07:28.579Z,95416.53
2023-03-21T19:10:16.571Z,95418.72
2023-03-21T19:12:46.912Z,95419.84
2023-03-21T19:15:19.614Z,95417.69
2023-03-21T19:20:45.127Z,95423.66
2023-03-21T19:24:19.403Z,95422.84
2023-03-21T19:26:31.638Z,95420.69
2023-03-21T19:29:01.260Z,95423.66
2023-03-21T19:31:31.053Z,95433.88
2023-03-21T19:34:02.336Z,95429.81
2023-03-21T19:36:34.570Z,95433.28
2023-03-21T19:39:04.633Z,95423.09
2023-03-21T19:41:36.365Z,95428.19
2023-03-21T19:44:06.622Z,95426.31
2023-03-21T19:46:36.094Z,95429.56
2023-03-21T19:49:06.653Z,95429.00
2023-03-21T19:51:36.769Z,95434.09
2023-03-21T19:54:07.552Z,95428.19
2023-03-21T19:56:38.415Z,95429.28
2023-03-21T19:59:08.496Z,95429.53
2023-03-21T20:01:39.163Z,95436.75
2023-03-21T20:04:09.021Z,95433.00
2023-03-21T20:06:39.152Z,95434.06
2023-03-21T20:12:00.769Z,95434.84
2023-03-21T20:14:30.451Z,95443.13
2023-03-21T20:16:59.989Z,95445.84
2023-03-21T20:19:29.482Z,95433.97
2023-03-21T20:22:02.529Z,95441.72
2023-03-21T20:24:32.777Z,95443.56
2023-03-21T20:27:04.583Z,95442.25
2023-03-21T20:30:08.854Z,95444.94
2023-03-21T20:32:23.925Z,95443.06
2023-03-21T20:35:02.649Z,95443.56
2023-03-21T20:37:46.160Z,95439.28
2023-03-21T20:40:17.515Z,95437.91
2023-03-21T20:42:49.156Z,95444.84
2023-03-21T20:45:19.262Z,95449.38
2023-03-21T20:47:49.577Z,95446.66
2023-03-21T20:50:22.110Z,95447.72
2023-03-21T20:53:05.847Z,95446.88
2023-03-21T20:55:36.439Z,95445.53
2023-03-21T20:58:27.211Z,95448.47
2023-03-21T21:01:03.700Z,95450.88
2023-03-21T21:03:39.133Z,95447.13
2023-03-21T21:06:14.173Z,95444.97
2023-03-21T21:08:45.456Z,95445.34
2023-03-21T21:12:02.959Z,95442.09
2023-03-21T21:14:09.029Z,95450.75
2023-03-21T21:16:38.534Z,95444.31
2023-03-21T21:19:08.236Z,95440.53
2023-03-21T21:21:37.937Z,95442.91
2023-03-21T21:24:09.446Z,95438.91
2023-03-21T21:26:45.923Z,95444.28
2023-03-21T21:29:18.327Z,95451.25
2023-03-21T21:31:50.852Z,95446.44
2023-03-21T21:34:20.317Z,95437.34
2023-03-21T21:36:49.988Z,95439.81
2023-03-21T21:39:21.862Z,95441.41
2023-03-21T21:41:51.554Z,95435.28
2023-03-21T21:44:22.418Z,95434.47
2023-03-21T21:46:52.266Z,95440.09
2023-03-21T21:49:21.684Z,95437.13
2023-03-21T21:51:51.135Z,95438.47
2023-03-21T21:54:20.594Z,95433.38
2023-03-21T21:56:54.040Z,95425.00
2023-03-21T21:59:25.092Z,95428.47
2023-03-21T22:01:54.587Z,95428.19
2023-03-21T22:04:27.860Z,95431.91
2023-03-21T22:06:57.786Z,95436.47
2023-03-21T22:09:27.334Z,95430.59
2023-03-21T22:11:56.761Z,95440.81
2023-03-21T22:14:27.521Z,95439.50
2023-03-21T22:16:58.145Z,95437.94
2023-03-21T22:19:28.284Z,95433.38
2023-03-21T22:21:58.183Z,95437.66
2023-03-21T22:24:27.866Z,95434.16
2023-03-21T22:27:02.007Z,95439.00
2023-03-21T22:29:32.945Z,95434.16
2023-03-21T22:32:02.776Z,95432.50
2023-03-21T22:34:32.278Z,95440.22
2023-03-21T22:37:02.534Z,95435.31
2023-03-21T22:39:32.248Z,95439.78
2023-03-21T22:42:04.336Z,95439.66
2023-03-21T22:44:35.529Z,95443.09
2023-03-21T22:47:08.395Z,95436.09
2023-03-21T22:49:39.098Z,95446.84
2023-03-21T22:52:08.613Z,95440.88
2023-03-21T22:54:38.410Z,95441.63
2023-03-21T22:57:08.887Z,95444.56
2023-03-21T22:59:39.601Z,95454.44
2023-03-21T23:02:10.024Z,95453.56
2023-03-21T23:04:40.433Z,95450.31
2023-03-21T23:07:10.194Z,95453.56
2023-03-21T23:09:39.688Z,95446.84
2023-03-21T23:12:15.968Z,95444.75
2023-03-21T23:14:47.290Z,95446.09
2023-03-21T23:17:17.208Z,95446.94
2023-03-21T23:19:46.732Z,95444.00
2023-03-21T23:22:16.533Z,95443.50
2023-03-21T23:24:46.979Z,95433.63
2023-03-21T23:27:18.122Z,95429.59
2023-03-21T23:29:49.226Z,95432.84
2023-03-21T23:32:19.010Z,95431.50
2023-03-21T23:34:48.663Z,95421.00
2023-03-21T23:37:18.591Z,95429.34
2023-03-21T23:39:49.110Z,95420.75
2023-03-21T23:42:18.808Z,95427.69
2023-03-21T23:44:49.764Z,95421.31
2023-03-21T23:47:19.335Z,95419.97
2023-03-21T23:49:49.905Z,95411.44
2023-03-21T23:52:19.821Z,95416.03
2023-03-21T23:54:49.231Z,95410.94
2023-03-21T23:57:18.678Z,95399.41
2023-03-21T23:59:49.414Z,95403.94
